sensor_id;sensor_type;location;lat;lon;timestamp;pressure;altitude;pressure_sealevel;temperature;humidity
72925;BME280;61070;50.794;7.054;2023-03-15T00:01:10;100495.13;;;2.61;87.86
72925;BME280;61070;50.794;7.054;2023-03-15T00:03:38;100492.38;;;2.54;88.68
72925;BME280;61070;50.794;7.054;2023-03-15T00:06:04;100483.56;;;2.49;88.56
72925;BME280;61070;50.794;7.054;2023-03-15T00:08:30;100490.47;;;2.45;88.94
72925;BME280;61070;50.794;7.054;2023-03-15T00:10:59;100492.16;;;2.42;89.48
72925;BME280;61070;50.794;7.054;2023-03-15T00:13:25;100500.97;;;2.48;88.88
72925;BME280;61070;50.794;7.054;2023-03-15T00:15:52;100508.75;;;2.44;89.10
72925;BME280;61070;50.794;7.054;2023-03-15T00:18:20;100499.13;;;2.41;89.47
72925;BME280;61070;50.794;7.054;2023-03-15T00:20:45;100499.13;;;2.41;89.84
72925;BME280;61070;50.794;7.054;2023-03-15T00:23:12;100499.09;;;2.40;89.99
72925;BME280;61070;50.794;7.054;2023-03-15T00:25:37;100498.16;;;2.36;90.16
72925;BME280;61070;50.794;7.054;2023-03-15T00:28:03;100498.97;;;2.32;90.55
72925;BME280;61070;50.794;7.054;2023-03-15T00:30:28;100499.78;;;2.28;91.18
72925;BME280;61070;50.794;7.054;2023-03-15T00:32:54;100514.81;;;2.41;90.91
72925;BME280;61070;50.794;7.054;2023-03-15T00:35:20;100509.38;;;2.30;91.33
72925;BME280;61070;50.794;7.054;2023-03-15T00:37:46;100510.28;;;2.32;91.62
72925;BME280;61070;50.794;7.054;2023-03-15T00:40:12;100503.41;;;2.38;91.86
72925;BME280;61070;50.794;7.054;2023-03-15T00:42:38;100511.13;;;2.30;92.71
72925;BME280;61070;50.794;7.054;2023-03-15T00:45:04;100505.25;;;2.43;91.84
72925;BME280;61070;50.794;7.054;2023-03-15T00:47:30;100508.75;;;2.44;92.09
72925;BME280;61070;50.794;7.054;2023-03-15T00:49:55;100505.47;;;2.55;92.16
72925;BME280;61070;50.794;7.054;2023-03-15T00:52:20;100508.00;;;2.49;91.83
72925;BME280;61070;50.794;7.054;2023-03-15T00:54:53;100502.69;;;2.46;92.57
72925;BME280;61070;50.794;7.054;2023-03-15T00:57:19;100503.00;;;2.65;91.59
72925;BME280;61070;50.794;7.054;2023-03-15T00:59:45;100502.78;;;2.51;92.51
72925;BME280;61070;50.794;7.054;2023-03-15T01:02:11;100506.19;;;2.47;92.76
72925;BME280;61070;50.794;7.054;2023-03-15T01:04:37;100508.00;;;2.49;93.27
72925;BME280;61070;50.794;7.054;2023-03-15T01:07:04;100512.25;;;2.46;92.61
72925;BME280;61070;50.794;7.054;2023-03-15T01:09:30;100515.03;;;2.53;91.84
72925;BME280;61070;50.794;7.054;2023-03-15T01:11:56;100509.78;;;2.53;92.82
72925;BME280;61070;50.794;7.054;2023-03-15T01:14:21;100512.63;;;2.67;92.39
72925;BME280;61070;50.794;7.054;2023-03-15T01:16:47;100516.13;;;2.66;92.14
72925;BME280;61070;50.794;7.054;2023-03-15T01:19:13;100512.78;;;2.75;91.08
72925;BME280;61070;50.794;7.054;2023-03-15T01:21:38;100511.91;;;2.76;91.79
72925;BME280;61070;50.794;7.054;2023-03-15T01:24:04;100516.38;;;2.83;91.42
72925;BME280;61070;50.794;7.054;2023-03-15T01:26:29;100517.03;;;2.70;92.63
72925;BME280;61070;50.794;7.054;2023-03-15T01:28:55;100518.78;;;2.71;92.02
72925;BME280;61070;50.794;7.054;2023-03-15T01:31:24;100527.69;;;2.80;91.72
72925;BME280;61070;50.794;7.054;2023-03-15T01:33:51;100525.91;;;2.78;91.71
72925;BME280;61070;50.794;7.054;2023-03-15T01:36:16;100530.22;;;2.76;92.50
72925;BME280;61070;50.794;7.054;2023-03-15T01:38:42;100539.88;;;2.80;92.68
72925;BME280;61070;50.794;7.054;2023-03-15T01:41:08;100539.16;;;2.88;91.00
72925;BME280;61070;50.794;7.054;2023-03-15T01:43:34;100551.31;;;2.85;92.02
72925;BME280;61070;50.794;7.054;2023-03-15T01:46:20;100562.69;;;2.87;91.40
72925;BME280;61070;50.794;7.054;2023-03-15T01:54:13;100564.63;;;3.00;93.08
72925;BME280;61070;50.794;7.054;2023-03-15T01:56:44;100567.22;;;2.99;94.85
72925;BME280;61070;50.794;7.054;2023-03-15T01:59:14;100578.41;;;2.90;95.64
72925;BME280;61070;50.794;7.054;2023-03-15T02:01:41;100576.59;;;2.84;97.62
72925;BME280;61070;50.794;7.054;2023-03-15T02:04:12;100584.53;;;2.90;96.97
72925;BME280;61070;50.794;7.054;2023-03-15T02:06:40;100580.97;;;2.87;98.22
72925;BME280;61070;50.794;7.054;2023-03-15T02:09:13;100571.28;;;2.81;98.89
72925;BME280;61070;50.794;7.054;2023-03-15T02:11:39;100584.34;;;2.80;100.00
72925;BME280;61070;50.794;7.054;2023-03-15T02:14:05;100572.03;;;2.74;100.00
72925;BME280;61070;50.794;7.054;2023-03-15T02:16:32;100584.22;;;2.72;100.00
72925;BME280;61070;50.794;7.054;2023-03-15T02:18:57;100577.13;;;2.67;100.00
72925;BME280;61070;50.794;7.054;2023-03-15T02:21:37;100574.59;;;2.71;100.00
72925;BME280;61070;50.794;7.054;2023-03-15T02:24:17;100584.72;;;2.53;100.00
72925;BME280;61070;50.794;7.054;2023-03-15T02:26:54;100573.47;;;2.57;100.00
72925;BME280;61070;50.794;7.054;2023-03-15T02:29:22;100571.88;;;2.65;100.00
72925;BME280;61070;50.794;7.054;2023-03-15T02:31:48;100563.91;;;2.59;100.00
72925;BME280;61070;50.794;7.054;2023-03-15T02:34:13;100563.97;;;2.60;100.00
72925;BME280;61070;50.794;7.054;2023-03-15T02:36:38;100569.88;;;2.50;100.00
72925;BME280;61070;50.794;7.054;2023-03-15T02:39:20;100570.06;;;2.61;100.00
72925;BME280;61070;50.794;7.054;2023-03-15T02:41:56;100564.94;;;2.67;100.00
72925;BME280;61070;50.794;7.054;2023-03-15T02:44:33;100568.47;;;2.71;100.00
72925;BME280;61070;50.794;7.054;2023-03-15T02:47:09;100562.34;;;2.69;100.00
72925;BME280;61070;50.794;7.054;2023-03-15T02:49:40;100568.22;;;2.55;100.00
72925;BME280;61070;50.794;7.054;2023-03-15T02:52:07;100571.09;;;2.24;100.00
72925;BME280;61070;50.794;7.054;2023-03-15T02:54:32;100577.50;;;1.96;100.00
72925;BME280;61070;50.794;7.054;2023-03-15T02:56:59;100578.47;;;2.01;100.00
72925;BME280;61070;50.794;7.054;2023-03-15T02:59:24;100576.84;;;1.65;100.00
72925;BME280;61070;50.794;7.054;2023-03-15T03:01:49;100585.81;;;1.37;100.00
72925;BME280;61070;50.794;7.054;2023-03-15T03:04:16;100589.97;;;1.31;100.00
72925;BME280;61070;50.794;7.054;2023-03-15T03:06:41;100600.44;;;1.32;100.00
72925;BME280;61070;50.794;7.054;2023-03-15T03:09:08;100596.72;;;1.23;100.00
72925;BME280;61070;50.794;7.054;2023-03-15T03:11:34;100601.06;;;1.22;100.00
72925;BME280;61070;50.794;7.054;2023-03-15T03:13:59;100609.72;;;1.20;100.00
72925;BME280;61070;50.794;7.054;2023-03-15T03:16:24;100596.75;;;1.24;100.00
72925;BME280;61070;50.794;7.054;2023-03-15T03:18:49;100599.38;;;1.24;100.00
72925;BME280;61070;50.794;7.054;2023-03-15T03:21:15;100604.59;;;1.24;100.00
72925;BME280;61070;50.794;7.054;2023-03-15T03:23:40;100606.28;;;1.22;100.00
72925;BME280;61070;50.794;7.054;2023-03-15T03:26:12;100615.25;;;1.33;100.00
72925;BME280;61070;50.794;7.054;2023-03-15T03:28:41;100612.78;;;1.38;100.00
72925;BME280;61070;50.794;7.054;2023-03-15T03:31:22;100616.91;;;1.30;100.00
72925;BME280;61070;50.794;7.054;2023-03-15T03:33:48;100618.78;;;1.35;100.00
72925;BME280;61070;50.794;7.054;2023-03-15T03:36:13;100628.34;;;1.35;100.00
72925;BME280;61070;50.794;7.054;2023-03-15T03:38:44;100625.66;;;1.32;100.00
72925;BME280;61070;50.794;7.054;2023-03-15T03:41:10;100619.53;;;1.30;100.00
72925;BME280;61070;50.794;7.054;2023-03-15T03:43:36;100622.16;;;1.31;100.00
72925;BME280;61070;50.794;7.054;2023-03-15T03:46:01;100623.84;;;1.28;100.00
72925;BME280;61070;50.794;7.054;2023-03-15T03:48:27;100633.41;;;1.29;100.00
72925;BME280;61070;50.794;7.054;2023-03-15T03:50:52;100636.16;;;1.35;100.00
72925;BME280;61070;50.794;7.054;2023-03-15T03:53:17;100640.44;;;1.31;100.00
72925;BME280;61070;50.794;7.054;2023-03-15T03:55:43;100637.88;;;1.34;100.00
72925;BME280;61070;50.794;7.054;2023-03-15T03:58:08;100638.00;;;1.37;100.00
72925;BME280;61070;50.794;7.054;2023-03-15T04:00:34;100640.63;;;1.39;100.00
72925;BME280;61070;50.794;7.054;2023-03-15T04:03:00;100642.63;;;1.49;100.00
72925;BME280;61070;50.794;7.054;2023-03-15T04:05:27;100634.41;;;1.34;100.00
72925;BME280;61070;50.794;7.054;2023-03-15T04:07:52;100644.22;;;1.44;100.00
72925;BME280;61070;50.794;7.054;2023-03-15T04:10:17;100637.19;;;1.41;100.00
72925;BME280;61070;50.794;7.054;2023-03-15T04:12:43;100639.97;;;1.48;100.00
72925;BME280;61070;50.794;7.054;2023-03-15T04:15:09;100642.47;;;1.44;100.00
72925;BME280;61070;50.794;7.054;2023-03-15T04:17:36;100641.66;;;1.47;100.00
72925;BME280;61070;50.794;7.054;2023-03-15T04:20:01;100646.75;;;1.41;100.00
72925;BME280;61070;50.794;7.054;2023-03-15T04:22:29;100641.53;;;1.41;100.00
72925;BME280;61070;50.794;7.054;2023-03-15T04:24:55;100648.56;;;1.43;100.00
72925;BME280;61070;50.794;7.054;2023-03-15T04:27:20;100645.19;;;1.48;100.00
72925;BME280;61070;50.794;7.054;2023-03-15T04:29:45;100648.63;;;1.46;100.00
72925;BME280;61070;50.794;7.054;2023-03-15T04:32:10;100652.28;;;1.53;100.00
72925;BME280;61070;50.794;7.054;2023-03-15T04:34:36;100650.59;;;1.57;100.00
72925;BME280;61070;50.794;7.054;2023-03-15T04:37:04;100649.63;;;1.52;100.00
72925;BME280;61070;50.794;7.054;2023-03-15T04:39:30;100639.06;;;1.47;100.00
72925;BME280;61070;50.794;7.054;2023-03-15T04:41:55;100645.97;;;1.45;100.00
72925;BME280;61070;50.794;7.054;2023-03-15T04:44:21;100655.38;;;1.37;100.00
72925;BME280;61070;50.794;7.054;2023-03-15T04:46:50;100651.06;;;1.39;100.00
72925;BME280;61070;50.794;7.054;2023-03-15T04:49:16;100646.72;;;1.39;100.00
72925;BME280;61070;50.794;7.054;2023-03-15T04:51:41;100652.75;;;1.37;100.00
72925;BME280;61070;50.794;7.054;2023-03-15T04:54:06;100661.53;;;1.40;100.00
72925;BME280;61070;50.794;7.054;2023-03-15T04:56:31;100663.28;;;1.41;100.00
72925;BME280;61070;50.794;7.054;2023-03-15T04:58:57;100680.59;;;1.36;100.00
72925;BME280;61070;50.794;7.054;2023-03-15T05:01:27;100670.34;;;1.45;100.00
72925;BME280;61070;50.794;7.054;2023-03-15T05:03:54;100675.59;;;1.47;100.00
72925;BME280;61070;50.794;7.054;2023-03-15T05:06:19;100688.53;;;1.42;100.00
72925;BME280;61070;50.794;7.054;2023-03-15T05:08:44;100694.63;;;1.41;100.00
72925;BME280;61070;50.794;7.054;2023-03-15T05:11:11;100691.94;;;1.38;100.00
72925;BME280;61070;50.794;7.054;2023-03-15T05:13:36;100694.66;;;1.43;100.00
72925;BME280;61070;50.794;7.054;2023-03-15T05:16:02;100700.78;;;1.45;100.00
72925;BME280;61070;50.794;7.054;2023-03-15T05:18:27;100698.97;;;1.42;100.00
72925;BME280;61070;50.794;7.054;2023-03-15T05:20:53;100700.00;;;1.48;100.00
72925;BME280;61070;50.794;7.054;2023-03-15T05:23:24;100697.47;;;1.51;100.00
72925;BME280;61070;50.794;7.054;2023-03-15T05:25:54;100702.69;;;1.51;100.00
72925;BME280;61070;50.794;7.054;2023-03-15T05:28:23;100706.19;;;1.53;100.00
72925;BME280;61070;50.794;7.054;2023-03-15T05:30:50;100707.03;;;1.52;100.00
72925;BME280;61070;50.794;7.054;2023-03-15T05:33:19;100702.59;;;1.48;100.00
72925;BME280;61070;50.794;7.054;2023-03-15T05:35:45;100707.91;;;1.51;100.00
72925;BME280;61070;50.794;7.054;2023-03-15T05:38:11;100709.50;;;1.45;100.00
72925;BME280;61070;50.794;7.054;2023-03-15T05:40:43;100719.31;;;1.56;100.00
72925;BME280;61070;50.794;7.054;2023-03-15T05:43:09;100711.59;;;1.59;100.00
72925;BME280;61070;50.794;7.054;2023-03-15T05:45:35;100725.56;;;1.61;100.00
72925;BME280;61070;50.794;7.054;2023-03-15T05:48:00;100729.19;;;1.67;100.00
72925;BME280;61070;50.794;7.054;2023-03-15T05:50:26;100731.94;;;1.73;100.00
72925;BME280;61070;50.794;7.054;2023-03-15T05:52:52;100737.41;;;1.83;100.00
72925;BME280;61070;50.794;7.054;2023-03-15T05:55:18;100750.66;;;1.92;100.00
72925;BME280;61070;50.794;7.054;2023-03-15T05:57:44;100758.13;;;1.77;100.00
72925;BME280;61070;50.794;7.054;2023-03-15T06:00:09;100755.78;;;1.87;100.00
72925;BME280;61070;50.794;7.054;2023-03-15T06:02:35;100762.75;;;1.88;100.00
72925;BME280;61070;50.794;7.054;2023-03-15T06:05:00;100770.53;;;1.85;100.00
72925;BME280;61070;50.794;7.054;2023-03-15T06:07:25;100780.81;;;1.79;100.00
72925;BME280;61070;50.794;7.054;2023-03-15T06:09:51;100780.09;;;1.85;100.00
72925;BME280;61070;50.794;7.054;2023-03-15T06:12:16;100784.66;;;1.93;100.00
72925;BME280;61070;50.794;7.054;2023-03-15T06:14:42;100785.56;;;1.94;100.00
72925;BME280;61070;50.794;7.054;2023-03-15T06:17:07;100791.72;;;1.97;100.00
72925;BME280;61070;50.794;7.054;2023-03-15T06:19:32;100790.03;;;1.99;100.00
72925;BME280;61070;50.794;7.054;2023-03-15T06:21:59;100793.72;;;2.08;100.00
72925;BME280;61070;50.794;7.054;2023-03-15T06:24:24;100800.69;;;2.09;100.00
72925;BME280;61070;50.794;7.054;2023-03-15T06:26:49;100794.44;;;2.02;100.00
72925;BME280;61070;50.794;7.054;2023-03-15T06:29:15;100797.13;;;2.05;100.00
72925;BME280;61070;50.794;7.054;2023-03-15T06:31:41;100800.63;;;2.06;100.00
72925;BME280;61070;50.794;7.054;2023-03-15T06:34:07;100805.94;;;2.10;100.00
72925;BME280;61070;50.794;7.054;2023-03-15T06:36:32;100805.94;;;2.10;100.00
72925;BME280;61070;50.794;7.054;2023-03-15T06:38:58;100824.34;;;2.15;100.00
72925;BME280;61070;50.794;7.054;2023-03-15T06:41:23;100825.88;;;2.05;100.00
72925;BME280;61070;50.794;7.054;2023-03-15T06:43:49;100835.03;;;2.24;100.00
72925;BME280;61070;50.794;7.054;2023-03-15T06:46:14;100829.53;;;2.13;100.00
72925;BME280;61070;50.794;7.054;2023-03-15T06:48:40;100831.16;;;2.08;100.00
72925;BME280;61070;50.794;7.054;2023-03-15T06:51:05;100842.56;;;2.12;100.00
72925;BME280;61070;50.794;7.054;2023-03-15T06:53:30;100844.25;;;2.10;100.00
72925;BME280;61070;50.794;7.054;2023-03-15T06:55:56;100844.22;;;2.08;100.00
72925;BME280;61070;50.794;7.054;2023-03-15T06:58:21;100855.63;;;2.12;100.00
72925;BME280;61070;50.794;7.054;2023-03-15T07:00:46;100860.09;;;2.16;100.00
72925;BME280;61070;50.794;7.054;2023-03-15T07:03:13;100861.09;;;2.21;100.00
72925;BME280;61070;50.794;7.054;2023-03-15T07:05:38;100867.25;;;2.24;100.00
72925;BME280;61070;50.794;7.054;2023-03-15T07:08:04;100873.53;;;2.31;100.00
72925;BME280;61070;50.794;7.054;2023-03-15T07:10:29;100878.81;;;2.34;100.00
72925;BME280;61070;50.794;7.054;2023-03-15T07:12:55;100886.59;;;2.31;100.00
72925;BME280;61070;50.794;7.054;2023-03-15T07:15:20;100877.88;;;2.30;100.00
72925;BME280;61070;50.794;7.054;2023-03-15T07:17:45;100881.47;;;2.36;100.00
72925;BME280;61070;50.794;7.054;2023-03-15T07:20:11;100891.91;;;2.34;100.00
72925;BME280;61070;50.794;7.054;2023-03-15T07:22:36;100899.78;;;2.37;100.00
72925;BME280;61070;50.794;7.054;2023-03-15T07:25:02;100894.66;;;2.40;100.00
72925;BME280;61070;50.794;7.054;2023-03-15T07:27:30;100904.41;;;2.47;100.00
72925;BME280;61070;50.794;7.054;2023-03-15T07:29:55;100907.75;;;2.40;100.00
72925;BME280;61070;50.794;7.054;2023-03-15T07:32:20;100918.25;;;2.43;100.00
72925;BME280;61070;50.794;7.054;2023-03-15T07:34:46;100919.97;;;2.41;100.00
72925;BME280;61070;50.794;7.054;2023-03-15T07:37:11;100924.47;;;2.48;100.00
72925;BME280;61070;50.794;7.054;2023-03-15T07:39:36;100924.09;;;2.33;100.00
72925;BME280;61070;50.794;7.054;2023-03-15T07:42:02;100932.03;;;2.38;100.00
72925;BME280;61070;50.794;7.054;2023-03-15T07:44:27;100934.78;;;2.42;100.00
72925;BME280;61070;50.794;7.054;2023-03-15T07:46:52;100931.41;;;2.46;100.00
72925;BME280;61070;50.794;7.054;2023-03-15T07:49:19;100941.75;;;2.42;100.00
72925;BME280;61070;50.794;7.054;2023-03-15T07:51:44;100943.75;;;2.52;100.00
72925;BME280;61070;50.794;7.054;2023-03-15T07:54:09;100947.38;;;2.58;100.00
72925;BME280;61070;50.794;7.054;2023-03-15T07:56:35;100954.75;;;2.75;100.00
72925;BME280;61070;50.794;7.054;2023-03-15T07:59:00;100957.81;;;2.57;100.00
72925;BME280;61070;50.794;7.054;2023-03-15T08:01:26;100953.72;;;2.68;100.00
72925;BME280;61070;50.794;7.054;2023-03-15T08:03:51;100953.69;;;2.67;100.00
72925;BME280;61070;50.794;7.054;2023-03-15T08:06:16;100962.28;;;2.61;100.00
72925;BME280;61070;50.794;7.054;2023-03-15T08:08:42;100959.00;;;2.71;100.00
72925;BME280;61070;50.794;7.054;2023-03-15T08:11:07;100958.28;;;2.77;100.00
72925;BME280;61070;50.794;7.054;2023-03-15T08:13:33;100964.72;;;2.91;100.00
72925;BME280;61070;50.794;7.054;2023-03-15T08:15:58;100968.63;;;3.08;100.00
72925;BME280;61070;50.794;7.054;2023-03-15T08:18:23;100976.69;;;3.17;100.00
72925;BME280;61070;50.794;7.054;2023-03-15T08:20:49;100981.22;;;3.26;100.00
72925;BME280;61070;50.794;7.054;2023-03-15T08:23:14;100985.94;;;3.41;100.00
72925;BME280;61070;50.794;7.054;2023-03-15T08:25:41;100988.63;;;3.45;100.00
72925;BME280;61070;50.794;7.054;2023-03-15T08:28:07;100991.25;;;3.45;100.00
72925;BME280;61070;50.794;7.054;2023-03-15T08:30:32;100996.50;;;3.45;100.00
72925;BME280;61070;50.794;7.054;2023-03-15T08:32:57;100995.44;;;3.37;100.00
72925;BME280;61070;50.794;7.054;2023-03-15T08:35:23;101011.78;;;3.27;100.00
72925;BME280;61070;50.794;7.054;2023-03-15T08:37:49;101009.50;;;3.03;100.00
72925;BME280;61070;50.794;7.054;2023-03-15T08:40:18;101012.53;;;2.84;100.00
72925;BME280;61070;50.794;7.054;2023-03-15T08:42:50;101014.72;;;3.03;100.00
72925;BME280;61070;50.794;7.054;2023-03-15T08:45:16;101012.09;;;3.03;100.00
72925;BME280;61070;50.794;7.054;2023-03-15T08:47:42;101016.44;;;3.03;100.00
72925;BME280;61070;50.794;7.054;2023-03-15T08:50:12;101020.13;;;3.09;100.00
72925;BME280;61070;50.794;7.054;2023-03-15T08:52:39;101028.59;;;2.99;100.00
72925;BME280;61070;50.794;7.054;2023-03-15T08:55:05;101044.28;;;2.99;100.00
72925;BME280;61070;50.794;7.054;2023-03-15T08:57:31;101036.75;;;3.13;100.00
72925;BME280;61070;50.794;7.054;2023-03-15T09:00:00;101046.41;;;3.15;100.00
72925;BME280;61070;50.794;7.054;2023-03-15T09:02:31;101049.44;;;3.32;100.00
72925;BME280;61070;50.794;7.054;2023-03-15T09:04:56;101061.25;;;3.16;100.00
72925;BME280;61070;50.794;7.054;2023-03-15T09:07:22;101068.13;;;3.11;100.00
72925;BME280;61070;50.794;7.054;2023-03-15T09:09:47;101062.59;;;2.99;100.00
72925;BME280;61070;50.794;7.054;2023-03-15T09:12:15;101066.97;;;2.99;100.00
72925;BME280;61070;50.794;7.054;2023-03-15T09:14:41;101054.66;;;2.95;100.00
72925;BME280;61070;50.794;7.054;2023-03-15T09:17:06;101067.94;;;3.04;100.00
72925;BME280;61070;50.794;7.054;2023-03-15T09:19:32;101071.69;;;3.15;100.00
72925;BME280;61070;50.794;7.054;2023-03-15T09:21:57;101069.22;;;3.19;100.00
72925;BME280;61070;50.794;7.054;2023-03-15T09:24:22;101071.47;;;3.06;100.00
72925;BME280;61070;50.794;7.054;2023-03-15T09:26:48;101072.47;;;3.09;100.00
72925;BME280;61070;50.794;7.054;2023-03-15T09:29:13;101077.81;;;3.15;100.00
72925;BME280;61070;50.794;7.054;2023-03-15T09:31:38;101084.91;;;3.19;100.00
72925;BME280;61070;50.794;7.054;2023-03-15T09:34:04;101082.94;;;3.11;100.00
72925;BME280;61070;50.794;7.054;2023-03-15T09:36:30;101092.56;;;3.12;100.00
72925;BME280;61070;50.794;7.054;2023-03-15T09:38:55;101091.25;;;3.29;100.00
72925;BME280;61070;50.794;7.054;2023-03-15T09:41:43;101092.75;;;3.56;100.00
72925;BME280;61070;50.794;7.054;2023-03-15T09:44:17;101092.13;;;3.67;100.00
72925;BME280;61070;50.794;7.054;2023-03-15T09:46:59;101098.91;;;3.59;100.00
72925;BME280;61070;50.794;7.054;2023-03-15T09:52:20;101095.94;;;3.82;100.00
72925;BME280;61070;50.794;7.054;2023-03-15T09:58:02;101106.78;;;3.59;98.69
72925;BME280;61070;50.794;7.054;2023-03-15T10:03:03;101100.88;;;3.68;95.54
72925;BME280;61070;50.794;7.054;2023-03-15T10:05:43;101093.56;;;3.94;93.65
72925;BME280;61070;50.794;7.054;2023-03-15T10:08:12;101096.34;;;4.00;94.81
72925;BME280;61070;50.794;7.054;2023-03-15T10:11:05;101084.66;;;4.28;96.30
72925;BME280;61070;50.794;7.054;2023-03-15T10:13:52;101085.25;;;4.13;92.93
72925;BME280;61070;50.794;7.054;2023-03-15T10:16:36;101083.16;;;4.41;91.76
72925;BME280;61070;50.794;7.054;2023-03-15T10:22:03;101087.19;;;4.67;90.96
72925;BME280;61070;50.794;7.054;2023-03-15T10:24:56;101090.69;;;4.67;90.44
72925;BME280;61070;50.794;7.054;2023-03-15T10:30:21;101085.41;;;4.66;90.69
72925;BME280;61070;50.794;7.054;2023-03-15T10:32:57;101086.94;;;5.03;89.40
72925;BME280;61070;50.794;7.054;2023-03-15T10:35:24;101091.34;;;5.07;90.65
72925;BME280;61070;50.794;7.054;2023-03-15T10:37:50;101088.91;;;5.18;88.65
72925;BME280;61070;50.794;7.054;2023-03-15T10:40:39;101085.06;;;5.52;89.76
72925;BME280;61070;50.794;7.054;2023-03-15T10:43:15;101093.38;;;5.81;89.20
72925;BME280;61070;50.794;7.054;2023-03-15T10:45:41;101084.28;;;5.58;87.54
72925;BME280;61070;50.794;7.054;2023-03-15T10:48:07;101082.03;;;5.87;89.36
72925;BME280;61070;50.794;7.054;2023-03-15T10:50:32;101089.72;;;5.70;83.61
72925;BME280;61070;50.794;7.054;2023-03-15T10:53:00;101092.44;;;5.77;85.28
72925;BME280;61070;50.794;7.054;2023-03-15T10:55:35;101091.06;;;6.02;88.77
72925;BME280;61070;50.794;7.054;2023-03-15T11:00:51;101075.84;;;5.81;83.44
72925;BME280;61070;50.794;7.054;2023-03-15T11:03:20;101093.56;;;5.93;82.59
72925;BME280;61070;50.794;7.054;2023-03-15T11:05:49;101083.22;;;6.05;82.95
72925;BME280;61070;50.794;7.054;2023-03-15T11:08:20;101076.72;;;5.80;76.30
72925;BME280;61070;50.794;7.054;2023-03-15T11:10:54;101086.94;;;5.59;76.31
72925;BME280;61070;50.794;7.054;2023-03-15T11:13:31;101091.44;;;5.68;76.73
72925;BME280;61070;50.794;7.054;2023-03-15T11:16:13;101092.47;;;5.79;76.98
72925;BME280;61070;50.794;7.054;2023-03-15T11:19:00;101099.47;;;5.78;77.92
72925;BME280;61070;50.794;7.054;2023-03-15T11:21:32;101100.91;;;6.20;80.74
72925;BME280;61070;50.794;7.054;2023-03-15T11:23:59;101102.66;;;6.20;78.67
72925;BME280;61070;50.794;7.054;2023-03-15T11:26:26;101112.28;;;6.16;78.57
72925;BME280;61070;50.794;7.054;2023-03-15T11:28:55;101110.75;;;6.35;78.57
72925;BME280;61070;50.794;7.054;2023-03-15T11:31:25;101112.69;;;6.51;75.91
72925;BME280;61070;50.794;7.054;2023-03-15T11:34:10;101118.31;;;6.86;77.83
72925;BME280;61070;50.794;7.054;2023-03-15T11:36:41;101117.56;;;6.99;74.89
72925;BME280;61070;50.794;7.054;2023-03-15T11:39:13;101123.78;;;7.05;73.73
72925;BME280;61070;50.794;7.054;2023-03-15T11:41:46;101112.84;;;6.66;75.12
72925;BME280;61070;50.794;7.054;2023-03-15T11:44:24;101121.91;;;6.91;75.79
72925;BME280;61070;50.794;7.054;2023-03-15T11:46:57;101125.22;;;6.74;72.68
72925;BME280;61070;50.794;7.054;2023-03-15T11:49:48;101125.94;;;6.59;69.65
72925;BME280;61070;50.794;7.054;2023-03-15T11:52:16;101131.34;;;6.69;70.81
72925;BME280;61070;50.794;7.054;2023-03-15T11:54:43;101132.28;;;6.78;72.87
72925;BME280;61070;50.794;7.054;2023-03-15T11:59:55;101137.13;;;6.39;69.86
72925;BME280;61070;50.794;7.054;2023-03-15T12:04:54;101144.91;;;6.32;71.61
72925;BME280;61070;50.794;7.054;2023-03-15T12:09:54;101143.88;;;6.19;70.00
72925;BME280;61070;50.794;7.054;2023-03-15T12:17:50;101141.84;;;5.98;69.90
72925;BME280;61070;50.794;7.054;2023-03-15T12:20:40;101136.19;;;5.74;68.30
72925;BME280;61070;50.794;7.054;2023-03-15T12:25:57;101137.25;;;5.88;69.77
72925;BME280;61070;50.794;7.054;2023-03-15T12:28:34;101144.63;;;6.10;71.32
72925;BME280;61070;50.794;7.054;2023-03-15T12:31:01;101143.75;;;6.10;69.55
72925;BME280;61070;50.794;7.054;2023-03-15T12:33:28;101143.88;;;6.21;68.69
72925;BME280;61070;50.794;7.054;2023-03-15T12:36:07;101135.31;;;6.35;65.04
72925;BME280;61070;50.794;7.054;2023-03-15T12:38:38;101132.75;;;6.43;66.05
72925;BME280;61070;50.794;7.054;2023-03-15T12:41:08;101133.63;;;6.40;66.03
72925;BME280;61070;50.794;7.054;2023-03-15T12:43:44;101131.22;;;6.60;67.02
72925;BME280;61070;50.794;7.054;2023-03-15T12:49:04;101127.19;;;6.93;64.22
72925;BME280;61070;50.794;7.054;2023-03-15T12:51:44;101122.97;;;7.13;65.29
72925;BME280;61070;50.794;7.054;2023-03-15T12:54:17;101124.69;;;7.11;60.24
72925;BME280;61070;50.794;7.054;2023-03-15T12:56:47;101124.97;;;7.45;62.59
72925;BME280;61070;50.794;7.054;2023-03-15T12:59:28;101124.16;;;7.49;59.65
72925;BME280;61070;50.794;7.054;2023-03-15T13:01:56;101117.88;;;7.35;57.72
72925;BME280;61070;50.794;7.054;2023-03-15T13:04:22;101126.81;;;7.56;58.64
72925;BME280;61070;50.794;7.054;2023-03-15T13:07:08;101115.59;;;7.86;60.74
72925;BME280;61070;50.794;7.054;2023-03-15T13:12:40;101112.91;;;7.74;58.00
72925;BME280;61070;50.794;7.054;2023-03-15T13:18:21;101100.88;;;8.33;60.54
72925;BME280;61070;50.794;7.054;2023-03-15T13:21:08;101097.31;;;8.23;57.65
72925;BME280;61070;50.794;7.054;2023-03-15T13:23:36;101096.53;;;8.39;57.22
72925;BME280;61070;50.794;7.054;2023-03-15T13:26:10;101103.50;;;8.31;55.19
72925;BME280;61070;50.794;7.054;2023-03-15T13:28:41;101108.88;;;8.48;56.03
72925;BME280;61070;50.794;7.054;2023-03-15T13:31:11;101100.94;;;8.46;55.37
72925;BME280;61070;50.794;7.054;2023-03-15T13:33:38;101101.88;;;8.67;53.59
72925;BME280;61070;50.794;7.054;2023-03-15T13:36:14;101106.38;;;8.95;53.64
72925;BME280;61070;50.794;7.054;2023-03-15T13:38:48;101101.81;;;8.39;52.19
72925;BME280;61070;50.794;7.054;2023-03-15T13:43:49;101111.63;;;9.01;53.70
72925;BME280;61070;50.794;7.054;2023-03-15T13:46:17;101107.25;;;8.97;51.55
72925;BME280;61070;50.794;7.054;2023-03-15T13:48:44;101096.69;;;9.22;51.82
72925;BME280;61070;50.794;7.054;2023-03-15T13:51:36;101101.97;;;9.31;48.52